createdAt,value
2018-05-12T00:01:22.608Z,61.80
2018-05-12T00:03:50.429Z,61.80
2018-05-12T00:06:18.243Z,62.10
2018-05-12T00:08:45.993Z,62.50
2018-05-12T00:11:14.481Z,62.00
2018-05-12T00:13:43.020Z,62.50
2018-05-12T00:16:10.774Z,62.60
2018-05-12T00:18:38.531Z,62.50
2018-05-12T00:21:06.309Z,62.50
2018-05-12T00:23:34.427Z,62.40
2018-05-12T00:26:02.931Z,64.50
2018-05-12T00:28:30.647Z,64.50
2018-05-12T00:30:58.394Z,64.00
2018-05-12T00:33:26.205Z,66.90
2018-05-12T00:35:54.744Z,63.90
2018-05-12T00:38:22.474Z,63.90
2018-05-12T00:40:51.020Z,63.90
2018-05-12T00:43:19.515Z,69.00
2018-05-12T00:45:48.003Z,68.20
2018-05-12T00:48:16.534Z,65.40
2018-05-12T00:50:44.267Z,65.40
2018-05-12T00:53:12.015Z,67.20
2018-05-12T00:55:40.512Z,68.00
2018-05-12T00:58:08.320Z,68.00
2018-05-12T01:00:36.055Z,67.70
2018-05-12T01:03:03.792Z,65.80
2018-05-12T01:05:31.556Z,67.80
2018-05-12T01:08:00.065Z,69.60
2018-05-12T01:10:27.832Z,69.60
2018-05-12T01:12:55.563Z,68.90
2018-05-12T01:15:23.395Z,68.90
2018-05-12T01:17:51.140Z,71.00
2018-05-12T01:20:18.892Z,71.00
2018-05-12T01:22:46.687Z,69.90
2018-05-12T01:25:14.442Z,68.90
2018-05-12T01:27:42.271Z,68.50
2018-05-12T01:30:09.987Z,69.20
2018-05-12T01:32:37.709Z,70.20
2018-05-12T01:35:05.854Z,71.10
2018-05-12T01:37:34.350Z,69.10
2018-05-12T01:40:02.077Z,69.10
2018-05-12T01:42:29.878Z,68.80
2018-05-12T01:44:58.171Z,70.20
2018-05-12T01:47:25.932Z,70.80
2018-05-12T01:49:53.724Z,72.60
2018-05-12T01:52:21.453Z,72.10
2018-05-12T01:54:49.221Z,71.40
2018-05-12T01:57:16.964Z,70.70
2018-05-12T01:59:45.887Z,72.40
2018-05-12T02:02:13.615Z,72.30
2018-05-12T02:04:42.128Z,71.20
2018-05-12T02:07:09.893Z,71.20
2018-05-12T02:09:37.632Z,71.70
2018-05-12T02:12:06.220Z,71.50
2018-05-12T02:14:34.720Z,71.70
2018-05-12T02:17:02.601Z,71.70
2018-05-12T02:19:30.340Z,71.40
2018-05-12T02:21:58.067Z,72.50
2018-05-12T02:24:25.840Z,71.90
2018-05-12T02:26:53.608Z,71.80
2018-05-12T02:29:21.692Z,71.80
2018-05-12T02:31:50.260Z,72.70
2018-05-12T02:34:18.004Z,72.50
2018-05-12T02:36:45.735Z,73.10
2018-05-12T02:39:13.538Z,72.50
2018-05-12T02:41:41.318Z,73.20
2018-05-12T02:44:09.188Z,73.20
2018-05-12T02:46:36.920Z,72.90
2018-05-12T02:49:04.643Z,73.30
2018-05-12T02:51:33.201Z,72.70
2018-05-12T02:54:00.911Z,72.60
2018-05-12T02:56:28.884Z,72.60
2018-05-12T02:58:56.676Z,72.50
2018-05-12T03:01:24.441Z,73.00
2018-05-12T03:03:52.213Z,73.50
2018-05-12T03:06:20.761Z,73.20
2018-05-12T03:08:48.512Z,73.20
2018-05-12T03:11:16.270Z,73.80
2018-05-12T03:13:44.052Z,74.10
2018-05-12T03:16:11.787Z,74.80
2018-05-12T03:18:40.371Z,74.10
2018-05-12T03:21:08.864Z,74.00
2018-05-12T03:23:36.788Z,74.00
2018-05-12T03:26:04.512Z,74.50
2018-05-12T03:28:32.280Z,74.20
2018-05-12T03:31:00.181Z,74.10
2018-05-12T03:33:28.672Z,74.90
2018-05-12T03:35:56.430Z,74.90
2018-05-12T03:38:24.206Z,74.60
2018-05-12T03:40:51.971Z,74.60
2018-05-12T03:43:19.757Z,75.40
2018-05-12T03:45:48.260Z,75.60
2018-05-12T03:48:16.142Z,75.60
2018-05-12T03:50:44.045Z,75.80
2018-05-12T03:53:11.912Z,75.50
2018-05-12T03:55:39.784Z,75.20
2018-05-12T03:58:07.545Z,75.00
2018-05-12T04:00:35.414Z,74.80
2018-05-12T04:03:03.279Z,74.80
2018-05-12T04:05:43.128Z,74.90
2018-05-12T04:08:25.226Z,75.40
2018-05-12T04:11:04.974Z,75.30
2018-05-12T04:13:32.949Z,75.80
2018-05-12T04:16:00.811Z,76.00
2018-05-12T04:18:28.678Z,76.00
2018-05-12T04:20:56.547Z,75.60
2018-05-12T04:23:24.414Z,75.70
2018-05-12T04:25:52.281Z,75.20
2018-05-12T04:28:21.832Z,74.70
2018-05-12T04:30:51.593Z,74.40
2018-05-12T04:33:20.492Z,74.70
2018-05-12T04:35:48.289Z,74.40
2018-05-12T04:38:36.752Z,73.90
2018-05-12T04:41:08.676Z,74.10
2018-05-12T04:43:36.555Z,74.00
2018-05-12T04:46:04.294Z,72.50
2018-05-12T04:48:32.051Z,71.70
2018-05-12T04:51:01.407Z,70.50
2018-05-12T04:55:58.136Z,70.50
2018-05-12T04:58:25.910Z,70.50
2018-05-12T05:00:53.637Z,70.70
2018-05-12T05:03:21.397Z,69.90
2018-05-12T05:05:49.131Z,67.20
2018-05-12T05:08:17.654Z,63.60
2018-05-12T05:10:45.419Z,63.50
2018-05-12T05:13:13.540Z,62.90
2018-05-12T05:15:42.089Z,62.00
2018-05-12T05:18:09.920Z,62.00
2018-05-12T05:20:37.703Z,60.80
2018-05-12T05:23:05.432Z,59.90
2018-05-12T05:25:34.137Z,56.70
2018-05-12T05:28:01.877Z,56.70
2018-05-12T05:30:30.365Z,55.00
2018-05-12T05:32:58.124Z,54.90
2018-05-12T05:35:26.615Z,55.10
2018-05-12T05:37:54.446Z,55.10
2018-05-12T05:40:22.967Z,56.30
2018-05-12T05:44:23.730Z,54.30
2018-05-12T05:46:51.626Z,55.30
2018-05-12T05:49:19.492Z,56.40
2018-05-12T05:51:47.360Z,55.90
2018-05-12T05:54:15.536Z,56.00
2018-05-12T05:56:47.130Z,57.50
2018-05-12T05:59:14.877Z,57.90
2018-05-12T06:01:44.628Z,56.60
2018-05-12T06:04:12.400Z,55.80
2018-05-12T06:06:40.300Z,53.50
2018-05-12T06:09:08.370Z,53.10
2018-05-12T06:11:36.237Z,52.60
2018-05-12T06:14:04.741Z,49.10
2018-05-12T06:16:33.097Z,50.10
2018-05-12T06:19:00.965Z,51.20
2018-05-12T06:21:28.836Z,50.80
2018-05-12T06:23:56.905Z,50.90
2018-05-12T06:26:24.977Z,52.40
2018-05-12T06:28:53.984Z,51.00
2018-05-12T06:31:21.942Z,50.90
2018-05-12T06:33:49.807Z,50.90
2018-05-12T06:36:18.290Z,50.90
2018-05-12T06:38:46.159Z,50.60
2018-05-12T06:41:14.229Z,51.80
2018-05-12T06:43:42.096Z,50.90
2018-05-12T06:46:09.964Z,50.50
2018-05-12T06:48:37.934Z,50.70
2018-05-12T06:51:05.800Z,51.20
2018-05-12T06:53:33.667Z,53.30
2018-05-12T06:56:01.654Z,51.30
2018-05-12T06:58:29.508Z,50.40
2018-05-12T07:00:57.475Z,48.00
2018-05-12T07:03:26.262Z,47.40
2018-05-12T07:05:55.065Z,47.50
2018-05-12T07:08:23.779Z,52.00
2018-05-12T07:10:52.270Z,47.60
2018-05-12T07:13:20.908Z,45.40
2018-05-12T07:15:48.786Z,45.40
2018-05-12T07:18:16.649Z,47.90
2018-05-12T07:20:46.147Z,45.50
2018-05-12T07:23:13.871Z,45.40
2018-05-12T07:25:41.649Z,48.20
2018-05-12T07:28:09.464Z,49.50
2018-05-12T07:30:37.201Z,45.90
2018-05-12T07:33:04.928Z,45.40
2018-05-12T07:35:32.815Z,44.30
2018-05-12T07:38:00.551Z,44.60
2018-05-12T07:40:28.317Z,46.70
2018-05-12T07:42:56.172Z,46.20
2018-05-12T07:45:24.904Z,42.70
2018-05-12T07:47:52.675Z,43.40
2018-05-12T07:50:20.396Z,45.20
2018-05-12T07:52:48.162Z,44.10
2018-05-12T07:55:16.766Z,43.70
2018-05-12T07:57:44.699Z,43.70
2018-05-12T08:00:13.212Z,44.90
2018-05-12T08:02:40.935Z,45.00
2018-05-12T08:05:08.790Z,44.70
2018-05-12T08:07:38.024Z,45.80
2018-05-12T08:10:06.560Z,43.70
2018-05-12T08:12:34.296Z,43.70
2018-05-12T08:15:02.086Z,41.20
2018-05-12T08:17:29.829Z,41.10
2018-05-12T08:19:57.560Z,42.70
2018-05-12T08:22:26.128Z,40.90
2018-05-12T08:24:53.858Z,40.90
2018-05-12T08:27:21.588Z,43.40
2018-05-12T08:29:49.514Z,44.20
2018-05-12T08:32:17.283Z,45.20
2018-05-12T08:34:45.010Z,40.90
2018-05-12T08:37:13.242Z,41.10
2018-05-12T08:39:41.746Z,41.90
2018-05-12T08:42:09.460Z,41.90
2018-05-12T08:44:37.223Z,44.00
2018-05-12T08:47:05.041Z,42.70
2018-05-12T08:49:32.811Z,42.00
2018-05-12T08:52:00.553Z,40.70
2018-05-12T08:54:29.076Z,43.00
2018-05-12T08:56:56.952Z,43.00
2018-05-12T08:59:25.475Z,40.90
2018-05-12T09:01:53.975Z,43.90
2018-05-12T09:04:22.541Z,39.70
2018-05-12T09:06:51.052Z,38.40
2018-05-12T09:09:18.767Z,38.30
2018-05-12T09:11:46.546Z,40.00
2018-05-12T09:14:14.280Z,44.90
2018-05-12T09:16:42.008Z,41.00
2018-05-12T09:19:09.772Z,42.50
2018-05-12T09:21:38.028Z,36.50
2018-05-12T09:24:06.539Z,38.00
2018-05-12T09:26:34.282Z,38.00
2018-05-12T09:29:02.963Z,36.80
2018-05-12T09:31:31.474Z,39.00
2018-05-12T09:33:59.229Z,39.10
2018-05-12T09:36:27.016Z,33.60
2018-05-12T09:38:54.759Z,34.10
2018-05-12T09:41:22.523Z,34.50
2018-05-12T09:43:50.279Z,34.10
2018-05-12T09:46:18.819Z,33.30
2018-05-12T09:48:46.561Z,33.30
2018-05-12T09:51:16.688Z,29.30
2018-05-12T09:53:44.436Z,29.10
2018-05-12T09:56:12.171Z,30.30
2018-05-12T09:58:40.816Z,30.80
2018-05-12T10:01:08.563Z,30.70
2018-05-12T10:03:36.301Z,30.00
2018-05-12T10:06:04.119Z,35.80
2018-05-12T10:08:31.838Z,30.00
2018-05-12T10:10:59.600Z,29.90
2018-05-12T10:13:27.326Z,33.50
2018-05-12T10:15:55.062Z,34.30
2018-05-12T10:18:22.934Z,30.00
2018-05-12T10:20:50.697Z,29.70
2018-05-12T10:23:19.205Z,33.10
2018-05-12T10:25:47.950Z,33.00
2018-05-12T10:28:15.713Z,31.70
2018-05-12T10:30:43.539Z,32.90
2018-05-12T10:33:12.094Z,34.40
2018-05-12T10:35:40.176Z,34.40
2018-05-12T10:38:07.955Z,31.60
2018-05-12T10:40:36.485Z,31.70
2018-05-12T10:43:04.298Z,31.40
2018-05-12T10:45:32.789Z,31.40
2018-05-12T10:48:01.285Z,31.10
2018-05-12T10:50:29.057Z,31.10
2018-05-12T10:52:57.655Z,29.90
2018-05-12T10:55:25.417Z,31.10
2018-05-12T10:57:53.318Z,28.90
2018-05-12T11:00:21.190Z,29.70
2018-05-12T11:02:49.053Z,31.50
2018-05-12T11:05:16.772Z,32.20
2018-05-12T11:07:44.685Z,31.30
2018-05-12T11:10:12.553Z,33.40
2018-05-12T11:12:40.421Z,33.00
2018-05-12T11:15:08.291Z,32.90
2018-05-12T11:17:36.256Z,31.60
2018-05-12T11:20:04.228Z,33.30
2018-05-12T11:22:32.093Z,31.00
2018-05-12T11:25:00.063Z,31.60
2018-05-12T11:27:27.932Z,33.00
2018-05-12T11:29:55.673Z,30.80
2018-05-12T11:32:23.505Z,32.20
2018-05-12T11:34:52.381Z,32.50
2018-05-12T11:37:20.872Z,32.70
2018-05-12T11:39:49.392Z,34.20
2018-05-12T11:42:17.175Z,34.30
2018-05-12T11:44:45.056Z,35.90
2018-05-12T11:47:12.768Z,34.50
2018-05-12T11:49:40.491Z,35.10
2018-05-12T11:52:08.386Z,33.30
2018-05-12T11:54:37.039Z,33.50
2018-05-12T11:57:04.900Z,33.30
2018-05-12T11:59:32.868Z,34.40
2018-05-12T12:02:00.669Z,34.80
2018-05-12T12:04:29.252Z,38.30
2018-05-12T12:06:58.244Z,38.50
2018-05-12T12:09:26.731Z,37.80
2018-05-12T12:11:54.461Z,37.70
2018-05-12T12:14:22.227Z,39.80
2018-05-12T12:16:49.971Z,38.70
2018-05-12T12:19:17.857Z,38.00
2018-05-12T12:21:45.824Z,39.00
2018-05-12T12:24:13.672Z,37.70
2018-05-12T12:26:41.800Z,37.80
2018-05-12T12:29:10.652Z,35.10
2018-05-12T12:31:38.523Z,35.00
2018-05-12T12:34:06.388Z,35.90
2018-05-12T12:36:34.192Z,36.90
2018-05-12T12:39:03.761Z,36.50
2018-05-12T12:41:31.548Z,36.40
2018-05-12T12:43:59.286Z,36.10
2018-05-12T12:46:27.160Z,38.30
2018-05-12T12:48:55.230Z,38.80
2018-05-12T12:51:23.098Z,38.80
2018-05-12T12:53:50.853Z,38.80
2018-05-12T12:56:18.588Z,38.90
2018-05-12T12:58:46.339Z,39.20
2018-05-12T13:01:14.085Z,38.80
2018-05-12T13:03:42.684Z,39.40
2018-05-12T13:06:11.169Z,38.00
2018-05-12T13:08:38.894Z,37.90
2018-05-12T13:11:06.643Z,37.10
2018-05-12T13:13:35.149Z,40.90
2018-05-12T13:16:02.881Z,39.20
2018-05-12T13:18:30.699Z,39.20
2018-05-12T13:20:59.189Z,39.20
2018-05-12T13:23:27.658Z,39.00
2018-05-12T13:25:56.167Z,39.80
2018-05-12T13:28:23.974Z,39.70
2018-05-12T13:30:51.826Z,38.80
2018-05-12T13:33:19.536Z,38.40
2018-05-12T13:35:48.057Z,37.40
2018-05-12T13:38:15.941Z,37.40
2018-05-12T13:40:43.687Z,37.90
2018-05-12T13:43:11.411Z,37.80
2018-05-12T13:45:40.014Z,36.90
2018-05-12T13:48:08.574Z,36.30
2018-05-12T13:50:37.075Z,35.60
2018-05-12T13:53:05.741Z,37.10
2018-05-12T13:55:34.260Z,39.50
2018-05-12T13:58:01.998Z,39.10
2018-05-12T14:00:30.509Z,40.30
2018-05-12T14:02:58.234Z,40.20
2018-05-12T14:05:26.028Z,37.00
2018-05-12T14:07:53.745Z,36.50
2018-05-12T14:10:21.468Z,37.00
2018-05-12T14:12:49.605Z,40.20
2018-05-12T14:15:18.083Z,38.00
2018-05-12T14:17:46.571Z,35.10
2018-05-12T14:20:15.097Z,36.10
2018-05-12T14:22:42.854Z,36.00
2018-05-12T14:25:10.585Z,35.00
2018-05-12T14:27:39.127Z,34.90
2018-05-12T14:30:07.621Z,34.80
2018-05-12T14:32:35.357Z,34.80
2018-05-12T14:35:03.159Z,35.00
2018-05-12T14:37:30.952Z,36.50
2018-05-12T14:39:59.432Z,36.00
2018-05-12T14:42:28.022Z,37.30
2018-05-12T14:44:55.792Z,37.30
2018-05-12T14:47:23.511Z,37.40
2018-05-12T14:49:51.268Z,36.20
2018-05-12T14:52:19.131Z,37.00
2018-05-12T14:54:46.853Z,38.50
2018-05-12T14:57:14.579Z,36.60
2018-05-12T14:59:42.360Z,38.10
2018-05-12T15:02:10.960Z,37.10
2018-05-12T15:04:38.611Z,37.10
2018-05-12T15:07:07.136Z,38.10
2018-05-12T15:09:35.639Z,38.10
2018-05-12T15:12:03.437Z,38.70
2018-05-12T15:14:32.005Z,39.00
2018-05-12T15:16:59.857Z,39.00
2018-05-12T15:19:27.828Z,42.40
2018-05-12T15:21:58.960Z,42.60
2018-05-12T15:24:26.906Z,39.30
2018-05-12T15:26:55.014Z,40.60
2018-05-12T15:29:22.748Z,42.20
2018-05-12T15:31:50.577Z,40.60
2018-05-12T15:34:19.067Z,39.20
2018-05-12T15:36:47.607Z,39.00
2018-05-12T15:39:15.332Z,39.00
2018-05-12T15:41:43.111Z,40.60
2018-05-12T15:44:10.937Z,39.60
2018-05-12T15:46:38.698Z,40.70
2018-05-12T15:49:07.188Z,40.60
2018-05-12T15:51:35.702Z,39.90
2018-05-12T15:54:03.514Z,40.00
2018-05-12T15:56:31.226Z,40.50
2018-05-12T15:58:58.985Z,40.80
2018-05-12T16:01:26.747Z,41.30
2018-05-12T16:03:54.504Z,41.60
2018-05-12T16:06:22.244Z,42.60
2018-05-12T16:08:49.966Z,41.70
2018-05-12T16:11:17.960Z,39.60
2018-05-12T16:13:47.752Z,40.20
2018-05-12T16:16:15.793Z,40.30
2018-05-12T16:18:44.861Z,40.10
2018-05-12T16:21:12.850Z,40.10
2018-05-12T16:23:44.867Z,40.90
2018-05-12T16:26:13.000Z,42.50
2018-05-12T16:28:41.017Z,43.40
2018-05-12T16:31:11.186Z,44.20
2018-05-12T16:33:42.854Z,44.20
2018-05-12T16:36:10.714Z,44.30
2018-05-12T16:38:38.499Z,44.30
2018-05-12T16:41:06.232Z,44.80
2018-05-12T16:43:34.099Z,44.40
2018-05-12T16:46:01.910Z,44.40
2018-05-12T16:48:29.631Z,44.80
2018-05-12T16:50:57.443Z,44.40
2018-05-12T16:53:25.179Z,44.90
2018-05-12T16:55:52.983Z,44.60
2018-05-12T16:58:20.804Z,44.10
2018-05-12T17:00:48.544Z,45.20
2018-05-12T17:03:16.316Z,45.30
2018-05-12T17:05:44.112Z,45.60
2018-05-12T17:08:11.837Z,45.70
2018-05-12T17:10:40.002Z,45.50
2018-05-12T17:13:08.498Z,45.40
2018-05-12T17:15:36.253Z,45.40
2018-05-12T17:18:04.798Z,46.00
2018-05-12T17:20:32.530Z,46.00
2018-05-12T17:23:02.069Z,45.60
2018-05-12T17:25:29.876Z,46.40
2018-05-12T17:27:57.775Z,46.10
2018-05-12T17:30:25.510Z,46.50
2018-05-12T17:32:53.251Z,46.50
2018-05-12T17:35:21.789Z,47.10
2018-05-12T17:37:50.880Z,47.00
2018-05-12T17:40:21.070Z,46.90
2018-05-12T17:42:48.926Z,46.90
2018-05-12T17:45:16.662Z,46.30
2018-05-12T17:47:44.520Z,46.90
2018-05-12T17:50:12.272Z,46.90
2018-05-12T17:52:40.056Z,46.90
2018-05-12T17:55:07.914Z,46.90
2018-05-12T17:57:35.665Z,47.00
2018-05-12T18:00:03.843Z,46.90
2018-05-12T18:02:31.573Z,47.10
2018-05-12T18:04:59.336Z,47.10
2018-05-12T18:07:27.143Z,46.90
2018-05-12T18:09:55.819Z,46.90
2018-05-12T18:12:23.689Z,47.00
2018-05-12T18:14:51.481Z,46.80
2018-05-12T18:17:20.069Z,48.10
2018-05-12T18:19:49.464Z,48.00
2018-05-12T18:22:18.354Z,48.60
2018-05-12T18:24:48.712Z,48.90
2018-05-12T18:27:17.425Z,48.50
2018-05-12T18:29:45.176Z,48.50
2018-05-12T18:32:12.946Z,48.80
2018-05-12T18:34:40.687Z,49.00
2018-05-12T18:37:08.586Z,48.30
2018-05-12T18:39:36.361Z,48.70
2018-05-12T18:42:04.106Z,49.10
2018-05-12T18:44:32.197Z,49.30
2018-05-12T18:47:00.044Z,49.20
2018-05-12T18:49:27.947Z,49.60
2018-05-12T18:52:11.370Z,49.70
2018-05-12T18:54:39.195Z,50.00
2018-05-12T18:57:07.025Z,50.30
2018-05-12T18:59:35.959Z,50.90
2018-05-12T19:02:03.928Z,50.90
2018-05-12T19:04:33.040Z,51.60
2018-05-12T19:07:03.738Z,52.10
2018-05-12T19:09:32.592Z,52.30
2018-05-12T19:12:04.743Z,52.20
2018-05-12T19:14:33.127Z,52.20
2018-05-12T19:17:00.940Z,52.40
2018-05-12T19:19:28.836Z,52.70
2018-05-12T19:21:56.757Z,53.10
2018-05-12T19:24:24.527Z,53.50
2018-05-12T19:26:52.363Z,54.80
2018-05-12T19:29:20.144Z,54.00
2018-05-12T19:31:47.904Z,54.00
2018-05-12T19:34:16.461Z,54.10
2018-05-12T19:36:44.237Z,54.10
2018-05-12T19:39:12.747Z,54.00
2018-05-12T19:41:40.520Z,54.00
2018-05-12T19:44:08.285Z,54.30
2018-05-12T19:46:36.049Z,54.60
2018-05-12T19:49:03.822Z,54.90
2018-05-12T19:51:31.671Z,55.10
2018-05-12T19:53:59.423Z,55.50
2018-05-12T19:56:27.187Z,55.90
2018-05-12T19:58:55.826Z,56.20
2018-05-12T20:01:23.547Z,56.20
2018-05-12T20:03:51.367Z,56.80
2018-05-12T20:06:19.117Z,56.80
2018-05-12T20:08:47.675Z,57.50
2018-05-12T20:11:15.603Z,57.30
2018-05-12T20:13:44.116Z,57.80
2018-05-12T20:16:11.898Z,57.70
2018-05-12T20:18:39.904Z,57.80
2018-05-12T20:21:07.665Z,58.00
2018-05-12T20:23:35.423Z,58.30
2018-05-12T20:26:03.249Z,58.30
2018-05-12T20:28:31.115Z,58.70
2018-05-12T20:30:58.951Z,58.80
2018-05-12T20:33:26.661Z,59.20
2018-05-12T20:35:54.502Z,59.30
2018-05-12T20:38:23.068Z,59.70
2018-05-12T20:40:51.603Z,60.00
2018-05-12T20:43:19.396Z,59.90
2018-05-12T20:45:47.144Z,60.40
2018-05-12T20:48:16.389Z,60.50
2018-05-12T20:50:44.966Z,60.40
2018-05-12T20:53:13.519Z,60.20
2018-05-12T20:55:41.254Z,60.20
2018-05-12T20:58:09.437Z,60.40
2018-05-12T21:00:37.184Z,60.40
2018-05-12T21:03:04.977Z,60.60
2018-05-12T21:05:32.755Z,60.60
2018-05-12T21:08:00.653Z,60.70
2018-05-12T21:10:29.147Z,61.50
2018-05-12T21:12:57.051Z,61.50
2018-05-12T21:15:24.872Z,61.60
2018-05-12T21:17:52.567Z,61.60
2018-05-12T21:20:20.332Z,61.90
2018-05-12T21:22:48.088Z,62.20
2018-05-12T21:25:15.865Z,62.50
2018-05-12T21:27:45.850Z,62.50
2018-05-12T21:30:14.917Z,62.70
2018-05-12T21:32:43.781Z,63.00
2018-05-12T21:35:11.598Z,63.00
2018-05-12T21:37:41.453Z,63.10
2018-05-12T21:40:09.846Z,63.10
2018-05-12T21:42:38.598Z,63.50
2018-05-12T21:45:07.909Z,63.90
2018-05-12T21:47:36.572Z,63.80
2018-05-12T21:50:04.744Z,63.80
2018-05-12T21:52:32.952Z,64.00
2018-05-12T21:55:01.899Z,64.00
2018-05-12T21:57:30.474Z,64.00
2018-05-12T22:00:02.643Z,64.50
2018-05-12T22:02:31.595Z,64.20
2018-05-12T22:04:59.869Z,64.20
2018-05-12T22:07:27.669Z,64.00
2018-05-12T22:09:56.230Z,64.80
2018-05-12T22:12:23.996Z,64.80
2018-05-12T22:14:51.802Z,65.00
2018-05-12T22:17:19.603Z,64.60
2018-05-12T22:19:47.419Z,64.60
2018-05-12T22:22:15.228Z,64.60
2018-05-12T22:24:42.953Z,64.80
2018-05-12T22:27:10.769Z,64.80
2018-05-12T22:29:38.489Z,65.00
2018-05-12T22:32:06.306Z,65.10
2018-05-12T22:34:34.070Z,65.10
2018-05-12T22:37:01.874Z,65.00
2018-05-12T22:39:29.645Z,65.80
2018-05-12T22:41:59.037Z,65.70
2018-05-12T22:44:27.586Z,65.20
2018-05-12T22:46:55.376Z,65.20
2018-05-12T22:49:23.956Z,65.20
2018-05-12T22:51:51.689Z,65.20
2018-05-12T22:54:19.432Z,65.20
2018-05-12T22:56:47.244Z,65.60
2018-05-12T22:59:14.967Z,66.10
2018-05-12T23:01:42.705Z,66.20
2018-05-12T23:04:10.572Z,66.00
2018-05-12T23:06:38.397Z,66.10
2018-05-12T23:09:06.183Z,66.50
2018-05-12T23:11:34.756Z,66.30
2018-05-12T23:14:02.487Z,66.30
2018-05-12T23:16:30.266Z,66.50
2018-05-12T23:18:58.210Z,66.70
2018-05-12T23:21:25.935Z,66.70
2018-05-12T23:23:54.430Z,67.00
2018-05-12T23:26:22.206Z,67.00
2018-05-12T23:28:50.107Z,66.70
2018-05-12T23:31:18.337Z,67.00
2018-05-12T23:33:46.196Z,67.20
2018-05-12T23:36:13.935Z,67.50
2018-05-12T23:38:42.478Z,68.10
2018-05-12T23:41:10.245Z,68.00
2018-05-12T23:43:38.167Z,68.40
2018-05-12T23:46:05.916Z,68.10
2018-05-12T23:48:34.419Z,68.60
2018-05-12T23:51:02.332Z,68.60
2018-05-12T23:53:30.068Z,69.00
2018-05-12T23:55:57.827Z,69.10
2018-05-12T23:58:25.685Z,69.10
